Time;durP1;ratioP1;P1;durP2;ratioP2;P2;SDS_P1;SDS_P2;PMS_P1;PMS_P2;Temp;Humidity;BMP_temperature;BMP_pressure;BME280_temperature;BME280_humidity;BME280_pressure;Samples;Min_cycle;Max_cycle;Signal;HPM_P1;HPM_P2
2022/08/19 00:01:34;;;;;;;35.35;24.25;;;;;;;23.79;54.23;99406.59;5017443;28;20050;-83
2022/08/19 00:04:06;;;;;;;37.00;22.77;;;;;;;23.84;54.08;99412.13;5002624;28;20065;-84
2022/08/19 00:06:33;;;;;;;36.53;23.35;;;;;;;23.86;54.07;99399.16;5011800;28;20050;-83
2022/08/19 00:09:01;;;;;;;33.03;22.58;;;;;;;23.87;54.27;99400.00;4999236;28;20585;-84
2022/08/19 00:11:27;;;;;;;30.55;21.63;;;;;;;23.87;54.48;99394.56;5037291;28;20501;-83
2022/08/19 00:13:56;;;;;;;36.72;22.50;;;;;;;23.89;54.10;99390.56;5024644;28;20477;-84
2022/08/19 00:16:24;;;;;;;35.55;23.65;;;;;;;23.93;54.26;99382.78;5023652;28;20452;-83
2022/08/19 00:18:55;;;;;;;35.38;23.55;;;;;;;23.83;55.04;99380.63;4972594;28;20046;-83
2022/08/19 00:21:26;;;;;;;29.52;23.13;;;;;;;23.77;55.39;99395.13;5018710;28;20350;-83
2022/08/19 00:23:54;;;;;;;34.72;22.98;;;;;;;23.79;55.31;99390.31;5004104;28;20037;-84
2022/08/19 00:26:21;;;;;;;32.58;22.40;;;;;;;23.81;54.94;99407.16;5037288;28;20436;-86
2022/08/19 00:28:48;;;;;;;33.38;22.88;;;;;;;23.84;54.93;99398.56;4998863;28;20061;-86
2022/08/19 00:31:16;;;;;;;41.13;22.63;;;;;;;23.82;55.03;99403.41;5021191;28;20042;-86
2022/08/19 00:33:42;;;;;;;33.75;23.35;;;;;;;23.77;55.38;99398.66;5035872;28;20164;-86
2022/08/19 00:36:10;;;;;;;33.65;23.13;;;;;;;23.76;55.70;99398.88;5034559;28;20417;-86
2022/08/19 00:38:39;;;;;;;35.58;22.98;;;;;;;23.73;55.55;99400.19;5004353;28;20082;-86
2022/08/19 00:41:05;;;;;;;31.52;22.65;;;;;;;23.72;55.71;99406.69;5001681;28;20049;-86
2022/08/19 00:43:33;;;;;;;29.95;21.45;;;;;;;23.72;55.72;99403.97;5019648;28;20045;-86
2022/08/19 00:46:04;;;;;;;30.10;21.70;;;;;;;23.70;55.74;99402.50;5000526;28;20041;-86
2022/08/19 00:48:33;;;;;;;32.83;22.52;;;;;;;23.69;55.96;99396.28;5032731;28;20153;-86
2022/08/19 00:51:00;;;;;;;32.20;21.92;;;;;;;23.70;55.98;99391.66;5019709;28;20053;-86
2022/08/19 00:53:31;;;;;;;36.63;24.27;;;;;;;23.68;55.31;99391.06;5030709;28;20038;-86
2022/08/19 00:55:59;;;;;;;37.17;23.23;;;;;;;23.67;55.22;99387.53;5014703;28;20054;-86
2022/08/19 00:58:30;;;;;;;31.15;21.27;;;;;;;23.65;55.48;99388.84;5002852;28;20057;-86
2022/08/19 01:00:57;;;;;;;35.80;22.63;;;;;;;23.72;54.76;99373.28;5000010;28;20103;-86
2022/08/19 01:03:24;;;;;;;35.53;23.35;;;;;;;23.71;55.18;99369.75;5018216;28;20042;-86
2022/08/19 01:05:52;;;;;;;35.72;22.17;;;;;;;23.69;55.62;99349.38;5035877;28;20370;-85
2022/08/19 01:08:19;;;;;;;32.15;21.88;;;;;;;23.68;55.52;99356.66;5037683;28;20046;-85
2022/08/19 01:10:55;;;;;;;35.15;22.27;;;;;;;23.62;55.51;99347.56;5018680;28;20501;-85
2022/08/19 01:13:28;;;;;;;38.63;24.23;;;;;;;23.68;55.21;99361.25;5029367;28;20098;-85
2022/08/19 01:16:16;;;;;;;39.65;25.10;;;;;;;23.70;55.04;99368.09;5003257;28;20041;-88
2022/08/19 01:18:43;;;;;;;39.92;26.02;;;;;;;23.71;55.11;99379.75;5003105;28;20042;-89
2022/08/19 01:21:37;;;;;;;35.90;23.15;;;;;;;23.60;55.24;99397.66;5004777;28;20489;-89
2022/08/19 01:24:04;;;;;;;36.20;23.17;;;;;;;23.67;55.57;99398.38;4995939;28;20518;-88
2022/08/19 01:26:30;;;;;;;36.13;22.60;;;;;;;23.67;55.63;99403.81;5018236;28;20053;-89
2022/08/19 01:29:00;;;;;;;37.28;23.58;;;;;;;23.71;55.53;99410.44;4988024;28;20485;-89
2022/08/19 01:31:31;;;;;;;35.25;23.48;;;;;;;23.70;55.36;99406.03;5003564;28;20552;-86
2022/08/19 01:34:00;;;;;;;40.85;26.17;;;;;;;23.67;55.46;99411.94;4984895;28;20065;-83
2022/08/19 01:36:41;;;;;;;38.47;24.58;;;;;;;23.60;55.99;99400.34;4981497;28;20045;-83
2022/08/19 01:39:12;;;;;;;36.25;23.17;;;;;;;23.60;56.05;99406.59;5032958;28;20048;-83
2022/08/19 01:41:39;;;;;;;44.65;27.98;;;;;;;23.64;55.54;99396.13;5018870;28;20100;-83
2022/08/19 01:44:08;;;;;;;44.20;26.35;;;;;;;23.65;55.65;99399.66;5001251;28;20065;-86
2022/08/19 01:46:47;;;;;;;48.88;27.70;;;;;;;23.65;55.44;99396.97;4996761;28;20046;-86
2022/08/19 01:49:15;;;;;;;52.55;29.52;;;;;;;23.62;55.56;99398.25;4999703;28;20038;-87
2022/08/19 01:51:42;;;;;;;46.88;27.88;;;;;;;23.64;55.50;99392.63;4994573;28;20104;-86
2022/08/19 01:54:10;;;;;;;47.20;27.75;;;;;;;23.62;55.46;99400.97;5019305;28;20398;-86
2022/08/19 01:56:38;;;;;;;44.35;27.35;;;;;;;23.61;55.60;99399.31;5002959;28;20050;-86
2022/08/19 01:59:10;;;;;;;49.00;28.30;;;;;;;23.59;55.74;99394.13;5034216;28;20121;-86
2022/08/19 02:01:39;;;;;;;40.55;25.77;;;;;;;23.59;55.99;99393.31;4997645;28;20052;-86
2022/08/19 02:04:07;;;;;;;48.13;28.63;;;;;;;23.61;55.84;99402.03;5011381;28;20420;-86
2022/08/19 02:06:34;;;;;;;43.58;26.58;;;;;;;23.59;56.06;99402.25;5017062;28;20044;-86
2022/08/19 02:09:01;;;;;;;44.55;24.98;;;;;;;23.59;55.89;99396.81;4999959;28;20742;-86
2022/08/19 02:11:31;;;;;;;42.88;26.35;;;;;;;23.55;56.42;99401.03;5018082;28;20054;-86
2022/08/19 02:14:05;;;;;;;44.33;25.00;;;;;;;23.54;56.26;99399.41;5011544;28;20049;-86
2022/08/19 02:16:33;;;;;;;42.28;26.02;;;;;;;23.55;56.28;99402.94;5032509;28;20657;-86
2022/08/19 02:19:00;;;;;;;46.30;27.58;;;;;;;23.51;56.43;99394.44;5034296;28;20052;-83
2022/08/19 02:21:28;;;;;;;48.75;28.38;;;;;;;23.53;56.30;99397.75;4996062;28;20046;-83
2022/08/19 02:23:55;;;;;;;53.53;28.67;;;;;;;23.53;56.17;99394.19;4968894;28;20038;-86
2022/08/19 02:26:23;;;;;;;43.42;27.05;;;;;;;23.52;56.39;99398.00;5001405;28;20048;-86
2022/08/19 02:28:49;;;;;;;43.20;26.63;;;;;;;23.54;56.32;99404.81;5031260;28;20057;-86
2022/08/19 02:31:19;;;;;;;45.97;25.48;;;;;;;23.52;56.57;99404.22;5018384;28;20512;-86
2022/08/19 02:33:46;;;;;;;41.80;25.90;;;;;;;23.50;56.61;99406.34;5031268;28;20050;-85
2022/08/19 02:36:14;;;;;;;42.08;25.50;;;;;;;23.52;56.37;99404.22;5017771;28;20401;-84
2022/08/19 02:38:42;;;;;;;46.58;26.10;;;;;;;23.50;56.70;99406.34;5015456;28;20046;-85
2022/08/19 02:41:28;;;;;;;43.10;25.27;;;;;;;23.34;57.10;99409.72;5019721;28;20046;-85
2022/08/19 02:43:56;;;;;;;38.88;24.90;;;;;;;23.43;56.96;99402.06;5028698;28;20198;-85
2022/08/19 02:46:45;;;;;;;40.17;24.88;;;;;;;23.42;56.89;99416.69;5008861;28;20179;-85
2022/08/19 02:49:12;;;;;;;42.15;25.02;;;;;;;23.42;56.76;99403.13;5017257;28;20045;-85
2022/08/19 02:51:43;;;;;;;41.97;25.38;;;;;;;23.40;56.57;99398.75;5018017;28;20041;-85
2022/08/19 02:54:10;;;;;;;52.92;29.20;;;;;;;23.39;56.50;99404.44;5015060;28;20050;-87
2022/08/19 02:56:40;;;;;;;53.17;29.42;;;;;;;23.36;56.39;99403.00;4998219;28;20042;-88
2022/08/19 02:59:08;;;;;;;53.40;27.52;;;;;;;23.39;56.20;99401.72;5019116;28;20050;-88
2022/08/19 03:01:39;;;;;;;51.67;26.73;;;;;;;23.41;56.07;99399.59;5016519;28;20607;-86
2022/08/19 03:04:07;;;;;;;48.20;28.35;;;;;;;23.34;56.19;99396.97;4984712;28;20050;-86
2022/08/19 03:06:43;;;;;;;52.83;27.35;;;;;;;23.27;56.51;99392.72;5021219;28;20490;-86
2022/08/19 03:09:11;;;;;;;49.22;28.15;;;;;;;23.36;56.23;99396.75;5013018;28;20070;-86
2022/08/19 03:11:38;;;;;;;44.00;26.25;;;;;;;23.37;56.46;99406.53;5003544;28;20503;-85
2022/08/19 03:14:08;;;;;;;47.42;26.95;;;;;;;23.34;56.17;99405.09;5038875;28;20383;-86
2022/08/19 03:16:47;;;;;;;41.88;26.05;;;;;;;23.29;56.55;99399.56;4995316;28;20053;-86
2022/08/19 03:19:20;;;;;;;44.58;26.50;;;;;;;23.28;56.73;99399.78;5019964;28;20088;-86
2022/08/19 03:21:49;;;;;;;41.42;25.23;;;;;;;23.32;56.63;99403.69;5033254;28;20050;-89
2022/08/19 03:24:18;;;;;;;48.58;27.65;;;;;;;23.26;56.70;99401.91;4998513;28;20053;-87
2022/08/19 03:26:48;;;;;;;45.38;26.77;;;;;;;23.24;56.68;99406.72;4995972;28;20041;-88
2022/08/19 03:29:15;;;;;;;51.53;27.23;;;;;;;23.26;56.53;99412.75;5036959;28;20099;-88
2022/08/19 03:32:01;;;;;;;52.08;27.05;;;;;;;23.21;56.48;99408.00;5003637;28;20050;-87
2022/08/19 03:34:32;;;;;;;50.17;28.10;;;;;;;23.25;56.54;99413.78;5015826;28;20049;-84
2022/08/19 03:37:03;;;;;;;45.40;26.40;;;;;;;23.24;56.30;99412.97;5019118;28;20050;-84
2022/08/19 03:39:30;;;;;;;52.35;27.70;;;;;;;23.19;56.36;99429.06;5034889;28;20064;-84
2022/08/19 03:41:59;;;;;;;43.72;25.48;;;;;;;23.19;56.42;99426.34;5038960;28;20046;-84
2022/08/19 03:44:46;;;;;;;45.97;26.52;;;;;;;23.19;56.61;99437.19;5000257;28;20054;-85
2022/08/19 03:47:16;;;;;;;49.38;27.80;;;;;;;23.21;56.43;99431.56;5015306;28;20061;-85
2022/08/19 03:49:43;;;;;;;45.05;25.52;;;;;;;23.19;56.55;99437.19;5021945;28;20050;-85
2022/08/19 03:52:10;;;;;;;44.45;25.88;;;;;;;23.17;56.65;99437.41;5004316;28;20038;-82
2022/08/19 03:54:42;;;;;;;47.08;25.90;;;;;;;23.07;57.13;99434.41;5036155;28;20046;-83
2022/08/19 03:57:09;;;;;;;45.25;26.20;;;;;;;23.12;56.96;99431.84;5021871;28;20053;-83
2022/08/19 03:59:36;;;;;;;45.25;25.80;;;;;;;23.16;57.05;99429.53;5012765;28;20042;-83
2022/08/19 04:02:08;;;;;;;41.47;24.10;;;;;;;23.12;57.11;99426.44;5002461;28;20068;-85
2022/08/19 04:04:40;;;;;;;44.70;25.05;;;;;;;23.09;56.85;99418.78;5011050;28;20125;-83
2022/08/19 04:07:08;;;;;;;42.25;24.33;;;;;;;23.14;56.92;99427.03;4997859;28;20056;-88
2022/08/19 04:09:36;;;;;;;49.13;27.17;;;;;;;23.15;56.85;99422.44;5018470;28;20053;-87
2022/08/19 04:12:05;;;;;;;46.95;26.80;;;;;;;23.15;56.67;99412.47;5006805;28;20045;-85
2022/08/19 04:14:33;;;;;;;51.97;27.65;;;;;;;23.10;56.57;99393.34;4996821;28;20093;-82
2022/08/19 04:17:01;;;;;;;45.90;26.80;;;;;;;23.08;56.70;99400.88;5002580;28;20038;-83
2022/08/19 04:19:30;;;;;;;46.53;24.67;;;;;;;23.04;56.86;99410.50;4999837;28;20046;-84
2022/08/19 04:21:57;;;;;;;47.45;27.10;;;;;;;23.14;56.58;99404.53;5016875;28;20054;-85
2022/08/19 04:24:24;;;;;;;53.15;25.55;;;;;;;23.09;56.72;99413.34;4990568;28;20454;-82
2022/08/19 04:26:51;;;;;;;48.38;25.67;;;;;;;23.04;57.10;99415.91;5041572;28;20037;-82
2022/08/19 04:29:24;;;;;;;45.88;26.50;;;;;;;23.08;56.91;99419.00;4998732;28;20358;-87
2022/08/19 04:31:53;;;;;;;46.10;26.38;;;;;;;23.09;56.81;99420.66;5016722;28;20080;-85
2022/08/19 04:34:22;;;;;;;44.88;25.13;;;;;;;23.06;57.00;99421.94;5019988;28;20051;-85
2022/08/19 04:36:50;;;;;;;45.08;26.00;;;;;;;23.04;57.22;99421.31;4987926;28;20533;-82
2022/08/19 04:39:20;;;;;;;45.58;24.33;;;;;;;23.03;57.43;99425.09;5013891;28;20052;-82
2022/08/19 04:44:34;;;;;;;51.00;25.65;;;;;;;23.13;56.95;99428.09;5012565;28;20041;-86
2022/08/19 04:47:04;;;;;;;47.20;26.48;;;;;;;23.16;57.07;99416.81;4982959;28;20037;-85
2022/08/19 04:49:37;;;;;;;46.75;25.25;;;;;;;23.11;57.53;99419.38;4980808;28;20073;-85
2022/08/19 04:52:05;;;;;;;48.33;26.75;;;;;;;23.06;57.77;99424.66;4985310;28;20081;-85
2022/08/19 04:54:31;;;;;;;47.90;26.33;;;;;;;23.07;57.50;99423.56;4998025;28;20045;-85
2022/08/19 04:57:08;;;;;;;39.83;23.55;;;;;;;23.09;57.33;99421.47;4993077;28;20046;-85
2022/08/19 04:59:36;;;;;;;40.15;24.08;;;;;;;23.10;57.31;99420.44;4951637;28;20045;-84
2022/08/19 05:02:04;;;;;;;44.25;24.77;;;;;;;22.92;57.85;99415.84;4979604;28;20053;-85
2022/08/19 05:04:32;;;;;;;42.17;23.77;;;;;;;23.06;57.29;99411.09;4978417;28;20082;-85
2022/08/19 05:07:00;;;;;;;41.20;23.92;;;;;;;23.08;57.40;99419.00;4950909;28;20125;-85
2022/08/19 05:09:28;;;;;;;45.42;25.98;;;;;;;23.03;57.66;99421.56;4999295;28;20120;-85
2022/08/19 05:12:15;;;;;;;41.13;22.65;;;;;;;22.95;57.83;99425.38;4987998;28;20042;-83
2022/08/19 05:14:43;;;;;;;45.85;24.48;;;;;;;22.96;57.84;99429.72;5018232;28;22217;-84
2022/08/19 05:17:09;;;;;;;44.40;23.08;;;;;;;22.96;57.83;99430.56;4998549;28;20489;-84
2022/08/19 05:22:43;;;;;;;43.10;23.80;;;;;;;22.81;58.49;99432.81;4982139;28;20050;-85
2022/08/19 05:25:13;;;;;;;36.70;21.35;;;;;;;22.89;58.32;99431.69;5013343;28;20666;-84
2022/08/19 05:27:41;;;;;;;40.25;24.15;;;;;;;22.91;58.13;99437.72;5002357;28;20057;-82
2022/08/19 05:30:10;;;;;;;41.22;23.90;;;;;;;22.85;58.35;99450.28;4985201;28;20517;-84
2022/08/19 05:32:38;;;;;;;42.20;23.52;;;;;;;22.91;57.99;99460.19;5004602;28;20057;-84
2022/08/19 05:35:05;;;;;;;38.63;22.90;;;;;;;22.90;58.24;99455.03;5032143;28;20041;-85
2022/08/19 05:37:32;;;;;;;34.50;20.45;;;;;;;22.95;58.20;99460.59;5013849;28;20133;-84
2022/08/19 05:39:59;;;;;;;39.75;21.23;;;;;;;22.99;57.83;99458.28;5015400;28;20763;-84
2022/08/19 05:42:26;;;;;;;37.17;22.33;;;;;;;22.99;58.10;99471.81;5033619;28;20107;-85
2022/08/19 05:44:53;;;;;;;42.92;21.88;;;;;;;22.96;58.35;99470.34;5026040;28;20505;-85
2022/08/19 05:47:20;;;;;;;34.67;20.88;;;;;;;23.04;58.17;99477.38;5034812;28;20124;-85
2022/08/19 05:49:49;;;;;;;35.42;20.95;;;;;;;23.04;58.10;99475.50;5015434;28;20457;-85
2022/08/19 05:52:16;;;;;;;43.17;22.83;;;;;;;23.08;58.02;99487.53;5002539;28;20050;-86
2022/08/19 05:54:47;;;;;;;39.92;21.60;;;;;;;23.00;58.27;99493.25;4997375;28;20126;-86
2022/08/19 05:57:18;;;;;;;35.30;21.33;;;;;;;22.99;58.24;99496.19;4989657;28;20164;-86
2022/08/19 05:59:47;;;;;;;38.08;21.38;;;;;;;22.93;58.37;99497.88;5004561;28;20393;-84
2022/08/19 06:02:14;;;;;;;33.33;21.60;;;;;;;22.99;58.15;99505.13;5017650;28;20057;-85
2022/08/19 06:04:42;;;;;;;35.22;20.73;;;;;;;22.98;58.40;99495.34;5032758;28;20046;-86
2022/08/19 06:07:09;;;;;;;34.28;20.75;;;;;;;22.91;58.78;99503.50;5031630;28;20053;-84
2022/08/19 06:09:39;;;;;;;39.70;21.45;;;;;;;22.88;58.65;99497.72;5018522;28;20559;-84
2022/08/19 06:12:06;;;;;;;36.80;20.70;;;;;;;22.93;58.70;99509.53;5035114;28;20042;-85
2022/08/19 06:14:35;;;;;;;37.30;21.55;;;;;;;22.78;59.10;99514.47;4983758;28;20042;-85
2022/08/19 06:17:07;;;;;;;35.63;20.48;;;;;;;22.87;58.94;99513.16;5030070;28;20781;-85
2022/08/19 06:19:35;;;;;;;39.83;21.63;;;;;;;22.95;58.85;99518.28;5018074;28;20045;-84
2022/08/19 06:22:07;;;;;;;34.33;20.38;;;;;;;23.00;58.70;99523.06;5016138;28;20473;-84
2022/08/19 06:24:35;;;;;;;37.00;21.10;;;;;;;23.08;58.29;99524.63;5001083;28;20406;-84
2022/08/19 06:27:03;;;;;;;39.08;20.23;;;;;;;23.10;58.44;99522.50;5034758;28;20058;-84
2022/08/19 06:29:29;;;;;;;36.17;20.35;;;;;;;23.15;58.44;99526.22;5014370;28;20502;-85
2022/08/19 06:31:59;;;;;;;40.65;20.90;;;;;;;23.16;58.47;99521.63;5018221;28;20046;-84
2022/08/19 06:34:29;;;;;;;27.75;19.20;;;;;;;23.19;58.32;99527.41;5018532;28;20045;-85
2022/08/19 06:36:58;;;;;;;30.92;19.63;;;;;;;23.22;58.24;99522.59;5017419;28;20078;-86
2022/08/19 06:39:32;;;;;;;36.13;19.13;;;;;;;23.19;58.54;99519.28;5017754;28;20065;-85
2022/08/19 06:42:01;;;;;;;29.58;19.00;;;;;;;23.25;58.37;99525.66;5025921;28;20041;-86
2022/08/19 06:44:34;;;;;;;32.33;19.98;;;;;;;23.17;58.62;99526.78;5020653;28;20046;-86
2022/08/19 06:47:07;;;;;;;34.72;20.33;;;;;;;23.23;58.65;99521.53;5020434;28;20557;-85
2022/08/19 06:49:41;;;;;;;32.75;18.88;;;;;;;23.31;58.37;99518.53;5002650;28;20053;-84
2022/08/19 06:52:08;;;;;;;30.38;18.35;;;;;;;23.17;58.80;99523.25;5037953;28;20046;-85
2022/08/19 06:54:39;;;;;;;31.15;18.42;;;;;;;23.24;58.36;99526.72;5019855;28;20104;-85
2022/08/19 06:57:24;;;;;;;32.45;19.10;;;;;;;23.16;58.97;99541.41;5019809;28;20049;-85
2022/08/19 06:59:53;;;;;;;30.35;19.83;;;;;;;23.17;58.82;99537.63;5019036;28;20069;-85
2022/08/19 07:02:20;;;;;;;32.17;18.98;;;;;;;23.19;59.02;99545.53;5037822;28;20048;-85
2022/08/19 07:04:49;;;;;;;32.28;18.40;;;;;;;23.13;59.06;99539.16;5037753;28;20178;-85
2022/08/19 07:07:19;;;;;;;34.65;20.08;;;;;;;23.08;59.21;99541.69;5021165;28;20113;-85
2022/08/19 07:09:48;;;;;;;36.65;20.25;;;;;;;23.10;59.25;99536.91;5020365;28;20034;-84
2022/08/19 07:16:13;;;;;;;32.03;19.40;;;;;;;23.04;59.46;99531.53;4972261;28;20046;-82
2022/08/19 07:18:49;;;;;;;32.45;20.15;;;;;;;23.04;59.58;99534.25;5001156;28;20104;-81
2022/08/19 07:21:27;;;;;;;33.03;21.08;;;;;;;23.01;59.99;99529.28;5036989;28;20121;-82
2022/08/19 07:23:56;;;;;;;34.00;20.08;;;;;;;23.09;59.68;99537.94;5040284;28;20048;-82
2022/08/19 07:30:13;;;;;;;32.28;19.42;;;;;;;23.20;59.53;99533.63;4986151;28;20042;-85
2022/08/19 07:32:40;;;;;;;33.95;19.13;;;;;;;23.27;59.37;99536.28;5039680;28;20509;-85
2022/08/19 07:35:08;;;;;;;29.73;19.35;;;;;;;23.26;59.38;99530.03;5024989;28;20053;-86
2022/08/19 07:37:36;;;;;;;32.83;19.45;;;;;;;23.34;59.25;99528.91;5002955;28;20088;-86
2022/08/19 07:40:06;;;;;;;31.02;19.88;;;;;;;23.38;59.19;99528.25;5020100;28;20061;-86
2022/08/19 07:42:33;;;;;;;30.17;19.67;;;;;;;23.43;59.10;99527.53;5038564;28;20041;-86
2022/08/19 07:44:59;;;;;;;37.70;20.95;;;;;;;23.33;59.43;99522.69;5020699;28;20065;-85
2022/08/19 07:47:27;;;;;;;40.92;20.77;;;;;;;23.44;59.24;99522.97;5022378;28;20037;-86
2022/08/19 07:50:14;;;;;;;36.58;21.02;;;;;;;23.49;59.33;99528.53;4997169;28;20050;-85
2022/08/19 07:52:42;;;;;;;31.23;20.42;;;;;;;23.47;58.90;99542.28;5019327;28;20464;-85
2022/08/19 07:55:10;;;;;;;34.65;21.52;;;;;;;23.41;59.42;99537.78;5032489;28;20449;-85
2022/08/19 07:57:57;;;;;;;33.55;19.58;;;;;;;23.50;59.38;99541.84;5031796;28;20053;-85
2022/08/19 08:00:24;;;;;;;36.40;20.27;;;;;;;23.43;59.54;99541.09;5022550;28;20046;-85
2022/08/19 08:02:52;;;;;;;38.80;20.50;;;;;;;23.43;59.82;99534.84;5037482;28;20046;-85
2022/08/19 08:10:56;;;;;;;33.58;21.48;;;;;;;23.47;59.67;99558.56;5032817;28;20048;-82
2022/08/19 08:13:24;;;;;;;29.60;20.05;;;;;;;23.48;59.77;99551.25;5004288;28;20647;-86
2022/08/19 08:15:52;;;;;;;30.20;18.15;;;;;;;23.58;59.56;99552.38;5021051;28;20080;-86
2022/08/19 08:25:37;;;;;;;28.55;18.85;;;;;;;23.53;59.93;99548.69;5032107;28;20053;-84
2022/08/19 08:28:05;;;;;;;28.20;17.48;;;;;;;23.55;59.90;99563.66;5018306;28;20042;-84
2022/08/19 08:30:36;;;;;;;33.50;19.02;;;;;;;23.51;60.22;99567.03;5033816;28;20042;-85
2022/08/19 08:33:03;;;;;;;27.25;18.77;;;;;;;23.57;60.12;99558.03;5016248;28;20050;-84
2022/08/19 08:35:30;;;;;;;30.45;18.35;;;;;;;23.57;59.98;99560.75;5036679;28;20505;-81
2022/08/19 08:37:57;;;;;;;29.73;18.10;;;;;;;23.62;60.14;99561.69;5023870;28;20115;-83
2022/08/19 08:40:30;;;;;;;28.83;17.52;;;;;;;23.68;59.68;99565.38;5025743;28;20069;-82
2022/08/19 08:43:04;;;;;;;30.42;17.80;;;;;;;23.64;59.80;99561.50;4979349;28;20053;-82
2022/08/19 08:45:51;;;;;;;23.48;16.40;;;;;;;23.69;59.93;99560.81;5033502;28;20046;-83
2022/08/19 08:48:39;;;;;;;;;;;;;;;23.51;60.00;99561.63;5012113;28;20053;-86
2022/08/19 08:51:10;;;;;;;24.30;15.07;;;;;;;23.63;59.24;99554.41;5018718;28;20861;-86
2022/08/19 08:53:38;;;;;;;27.48;15.73;;;;;;;23.69;59.26;99553.50;5019455;28;20041;-86
2022/08/19 08:56:12;;;;;;;20.00;14.27;;;;;;;23.74;59.21;99563.69;5019852;28;20497;-85
2022/08/19 08:59:07;;;;;;;23.45;15.68;;;;;;;23.50;59.60;99568.13;5005238;28;20482;-87
2022/08/19 09:01:35;;;;;;;26.48;16.60;;;;;;;23.62;59.10;99569.84;5044734;28;20049;-81
2022/08/19 09:04:05;;;;;;;24.23;15.68;;;;;;;23.68;59.34;99572.69;5003091;28;20053;-82
2022/08/19 09:06:43;;;;;;;24.95;14.45;;;;;;;23.70;59.02;99578.72;5035495;28;20048;-85
2022/08/19 09:09:16;;;;;;;24.80;15.90;;;;;;;23.70;58.73;99570.59;5035856;28;20195;-86
2022/08/19 09:11:56;;;;;;;27.42;15.20;;;;;;;23.67;58.76;99582.72;5019849;28;20042;-85
2022/08/19 09:14:41;;;;;;;22.58;14.13;;;;;;;23.78;58.68;99573.00;5029022;28;20055;-84
2022/08/19 09:17:19;;;;;;;23.70;16.25;;;;;;;23.82;58.42;99568.78;5010731;28;20061;-85
2022/08/19 09:19:56;;;;;;;20.75;14.88;;;;;;;23.78;58.34;99573.00;5018587;28;20088;-85
2022/08/19 09:22:23;;;;;;;17.95;13.23;;;;;;;23.96;57.17;99564.00;5034377;28;20073;-85
2022/08/19 09:24:53;;;;;;;21.80;12.43;;;;;;;23.86;56.70;99580.81;5018126;28;20394;-81
2022/08/19 09:27:23;;;;;;;17.30;11.52;;;;;;;23.90;56.53;99565.75;5021253;28;20053;-85
2022/08/19 09:30:15;;;;;;;22.13;11.80;;;;;;;23.94;56.46;99563.41;5002525;28;20038;-85
2022/08/19 09:32:43;;;;;;;20.25;11.60;;;;;;;24.00;56.30;99548.94;5030615;28;20053;-87
2022/08/19 09:35:12;;;;;;;17.95;11.38;;;;;;;24.03;55.84;99549.28;5000784;28;20070;-85
2022/08/19 09:37:39;;;;;;;16.13;11.07;;;;;;;24.08;55.36;99558.63;5032866;28;20575;-85
2022/08/19 09:40:07;;;;;;;14.48;11.40;;;;;;;24.02;55.50;99552.25;5000719;28;20053;-85
2022/08/19 09:42:37;;;;;;;17.48;10.98;;;;;;;23.96;55.72;99556.69;5034268;28;20292;-84
2022/08/19 09:45:20;;;;;;;18.38;10.35;;;;;;;24.11;55.27;99561.69;5017541;28;20046;-84
2022/08/19 09:47:51;;;;;;;16.55;10.77;;;;;;;24.00;55.08;99557.06;4999736;28;20052;-84
2022/08/19 09:50:22;;;;;;;16.35;10.90;;;;;;;24.01;55.08;99548.69;5015396;28;20571;-84
2022/08/19 09:52:48;;;;;;;23.20;12.13;;;;;;;24.13;55.11;99558.78;4986036;28;20049;-86
2022/08/19 09:55:24;;;;;;;21.65;10.93;;;;;;;24.09;55.02;99557.56;5022391;28;20050;-86
2022/08/19 09:58:02;;;;;;;17.48;10.32;;;;;;;24.06;54.91;99556.16;5033408;28;20058;-86
2022/08/19 10:00:30;;;;;;;17.95;11.07;;;;;;;24.18;54.11;99546.16;5020940;28;20061;-86
2022/08/19 10:02:57;;;;;;;14.70;8.82;;;;;;;24.23;54.02;99550.91;5039776;28;20125;-87
2022/08/19 10:08:12;;;;;;;12.57;9.70;;;;;;;24.31;53.81;99549.72;5015829;28;20101;-87
2022/08/19 10:10:43;;;;;;;13.57;10.82;;;;;;;24.30;52.79;99556.19;5005730;28;20469;-85
2022/08/19 10:13:13;;;;;;;14.18;10.07;;;;;;;24.32;53.12;99549.47;5003338;28;20421;-87
2022/08/19 10:15:40;;;;;;;17.33;10.38;;;;;;;24.28;53.04;99542.88;5003097;28;20046;-87
2022/08/19 10:18:14;;;;;;;16.20;9.93;;;;;;;24.36;53.51;99552.56;5039232;28;20046;-87
2022/08/19 10:20:41;;;;;;;13.80;9.73;;;;;;;24.38;53.47;99540.44;5040752;28;20045;-87
2022/08/19 10:23:09;;;;;;;16.10;10.15;;;;;;;24.54;53.84;99551.69;5022427;28;20069;-86
2022/08/19 10:25:35;;;;;;;16.48;10.02;;;;;;;24.57;53.69;99546.59;5023642;28;20042;-87
2022/08/19 10:28:11;;;;;;;24.17;10.60;;;;;;;24.61;53.20;99542.38;5008029;28;20046;-87
2022/08/19 10:30:39;;;;;;;14.32;10.30;;;;;;;24.71;52.53;99536.38;5021551;28;20370;-87
2022/08/19 10:33:06;;;;;;;21.58;9.90;;;;;;;24.63;52.46;99542.16;5007612;28;20046;-86
2022/08/19 10:35:37;;;;;;;14.18;10.35;;;;;;;24.63;52.39;99531.28;5021703;28;20050;-87
2022/08/19 10:38:22;;;;;;;15.55;9.90;;;;;;;24.63;52.17;99528.59;4969606;28;20896;-85
2022/08/19 10:41:28;;;;;;;21.60;9.68;;;;;;;24.63;52.16;99521.25;5032908;28;20119;-86
2022/08/19 10:43:57;;;;;;;14.75;8.80;;;;;;;24.72;52.19;99515.47;4991322;28;20053;-86
2022/08/19 10:46:32;;;;;;;14.55;9.73;;;;;;;24.74;51.80;99507.91;5020484;28;20050;-85
2022/08/19 10:49:00;;;;;;;14.70;9.40;;;;;;;24.72;51.62;99508.13;5004742;28;20042;-82
2022/08/19 10:54:15;;;;;;;12.52;8.80;;;;;;;24.82;51.54;99502.13;5016159;28;20042;-84
2022/08/19 10:56:51;;;;;;;14.27;9.68;;;;;;;24.88;51.71;99515.59;5022010;28;20042;-84
2022/08/19 10:59:23;;;;;;;11.32;9.05;;;;;;;24.85;50.72;99509.78;5003081;28;20046;-85
2022/08/19 11:01:54;;;;;;;11.52;8.45;;;;;;;24.89;50.84;99511.81;5036630;28;20038;-85
2022/08/19 11:04:24;;;;;;;14.98;9.13;;;;;;;24.92;50.86;99511.31;4996592;28;20043;-86
2022/08/19 11:06:55;;;;;;;18.15;9.18;;;;;;;24.96;50.81;99508.13;5036567;28;20042;-86
2022/08/19 11:09:24;;;;;;;14.73;8.82;;;;;;;25.01;50.54;99495.50;5005153;28;20444;-84
2022/08/19 11:12:00;;;;;;;11.60;8.52;;;;;;;24.98;49.36;99497.84;5001621;28;20096;-85
2022/08/19 11:14:32;;;;;;;13.75;8.82;;;;;;;25.01;49.15;99494.66;5002249;28;20048;-84
2022/08/19 11:17:02;;;;;;;14.80;9.05;;;;;;;25.13;48.69;99500.91;5004922;28;20061;-85
2022/08/19 11:19:30;;;;;;;15.25;9.45;;;;;;;25.19;48.52;99499.13;5003826;28;20041;-84
2022/08/19 11:22:01;;;;;;;12.07;9.07;;;;;;;25.28;48.98;99486.84;5018936;28;20052;-85
2022/08/19 11:24:30;;;;;;;13.90;8.55;;;;;;;25.34;48.63;99489.44;5036063;28;20049;-84
2022/08/19 11:27:04;;;;;;;9.48;8.48;;;;;;;25.38;48.39;99489.75;5004109;28;20123;-85
2022/08/19 11:29:36;;;;;;;14.70;10.52;;;;;;;25.40;47.42;99473.22;4992696;28;20053;-86
2022/08/19 11:32:05;;;;;;;15.57;9.00;;;;;;;25.45;47.65;99498.59;5038478;28;20046;-86
2022/08/19 11:34:31;;;;;;;13.70;8.95;;;;;;;25.40;47.95;99486.81;5021755;28;20046;-87
2022/08/19 11:37:25;;;;;;;15.07;9.35;;;;;;;25.40;48.06;99489.53;5037124;28;20050;-86
2022/08/19 11:39:53;;;;;;;12.35;8.13;;;;;;;25.51;48.05;99494.91;5047336;28;21160;-85
2022/08/19 11:45:10;;;;;;;13.98;9.55;;;;;;;25.46;48.23;99483.94;5026499;28;20673;-86
2022/08/19 11:47:38;;;;;;;14.63;9.13;;;;;;;25.44;48.00;99493.41;5005875;28;20129;-87
2022/08/19 11:50:05;;;;;;;12.95;9.30;;;;;;;25.44;47.90;99477.09;5001819;28;20371;-87
2022/08/19 11:52:32;;;;;;;16.10;9.68;;;;;;;25.44;48.43;99474.38;5003741;28;20121;-87
2022/08/19 11:54:59;;;;;;;11.00;9.75;;;;;;;25.43;48.47;99472.72;5022912;28;20038;-85
2022/08/19 11:57:25;;;;;;;14.00;9.52;;;;;;;25.48;48.35;99481.00;5036895;28;20052;-85
2022/08/19 11:59:52;;;;;;;11.90;9.10;;;;;;;25.52;47.62;99480.28;5038817;28;20042;-83
2022/08/19 12:02:19;;;;;;;14.55;9.57;;;;;;;25.56;48.12;99481.41;5038015;28;20115;-82
2022/08/19 12:04:46;;;;;;;13.80;9.48;;;;;;;25.58;47.91;99474.94;5003453;28;20491;-86
2022/08/19 12:07:15;;;;;;;16.95;9.40;;;;;;;25.65;47.52;99491.94;5007032;28;20042;-85
2022/08/19 12:09:42;;;;;;;12.82;10.35;;;;;;;25.66;47.09;99483.50;5018061;28;20057;-88